createdAt,value
2023-03-15T00:00:24.006Z,4.72
2023-03-15T00:02:50.763Z,4.71
2023-03-15T00:05:17.593Z,4.65
2023-03-15T00:07:44.389Z,4.67
2023-03-15T00:10:11.395Z,4.70
2023-03-15T00:12:38.089Z,4.71
2023-03-15T00:15:05.240Z,4.67
2023-03-15T00:17:34.783Z,4.68
2023-03-15T00:20:01.985Z,4.68
2023-03-15T00:22:28.663Z,4.66
2023-03-15T00:24:55.310Z,4.65
2023-03-15T00:27:25.232Z,4.62
2023-03-15T00:29:51.879Z,4.64
2023-03-15T00:32:18.544Z,4.64
2023-03-15T00:34:49.024Z,4.69
2023-03-15T00:37:16.904Z,4.71
2023-03-15T00:39:45.436Z,4.70
2023-03-15T00:42:16.883Z,4.73
2023-03-15T00:44:44.632Z,4.83
2023-03-15T00:47:12.561Z,4.83
2023-03-15T00:49:40.601Z,4.89
2023-03-15T00:52:08.065Z,4.91
2023-03-15T00:54:34.823Z,4.82
2023-03-15T00:57:02.258Z,4.90
2023-03-15T00:59:34.860Z,4.87
2023-03-15T01:02:03.406Z,4.86
2023-03-15T01:04:31.433Z,4.83
2023-03-15T01:06:59.059Z,4.87
2023-03-15T01:09:25.723Z,4.83
2023-03-15T01:11:52.445Z,4.88
2023-03-15T01:14:19.102Z,4.92
2023-03-15T01:16:46.338Z,4.89
2023-03-15T01:19:13.565Z,4.92
2023-03-15T01:21:40.251Z,5.06
2023-03-15T01:24:07.233Z,5.15
2023-03-15T01:26:33.893Z,5.18
2023-03-15T01:29:00.565Z,5.20
2023-03-15T01:31:30.594Z,5.11
2023-03-15T01:33:59.007Z,5.05
2023-03-15T01:36:25.655Z,5.13
2023-03-15T01:38:55.962Z,4.97
2023-03-15T01:41:24.827Z,4.84
2023-03-15T01:43:51.887Z,4.87
2023-03-15T01:46:26.931Z,4.75
2023-03-15T01:49:02.308Z,4.65
2023-03-15T01:51:47.430Z,4.52
2023-03-15T01:54:23.962Z,4.50
2023-03-15T01:56:57.498Z,4.43
2023-03-15T01:59:29.706Z,4.33
2023-03-15T02:01:57.173Z,4.29
2023-03-15T02:04:31.396Z,4.40
2023-03-15T02:07:01.579Z,4.43
2023-03-15T02:09:37.983Z,4.48
2023-03-15T02:12:04.889Z,4.50
2023-03-15T02:14:32.875Z,4.55
2023-03-15T02:16:59.496Z,4.51
2023-03-15T02:19:49.321Z,4.54
2023-03-15T02:22:38.059Z,4.54
2023-03-15T02:25:20.716Z,4.54
2023-03-15T02:27:48.098Z,4.51
2023-03-15T02:30:14.923Z,4.51
2023-03-15T02:32:41.683Z,4.50
2023-03-15T02:35:09.204Z,4.43
2023-03-15T02:37:36.170Z,4.48
2023-03-15T02:40:05.839Z,4.51
2023-03-15T02:42:32.686Z,4.51
2023-03-15T02:44:59.431Z,4.51
2023-03-15T02:47:32.330Z,4.51
2023-03-15T02:49:59.027Z,4.52
2023-03-15T02:52:26.443Z,4.52
2023-03-15T02:54:54.140Z,4.59
2023-03-15T02:57:21.284Z,4.50
2023-03-15T02:59:50.967Z,4.55
2023-03-15T03:02:17.941Z,4.51
2023-03-15T03:04:44.726Z,4.49
2023-03-15T03:07:11.504Z,4.47
2023-03-15T03:09:38.113Z,4.51
2023-03-15T03:12:05.105Z,4.48
2023-03-15T03:14:31.772Z,4.52
2023-03-15T03:16:58.682Z,4.56
2023-03-15T03:19:25.839Z,4.45
2023-03-15T03:21:53.825Z,4.44
2023-03-15T03:24:21.029Z,4.42
2023-03-15T03:26:47.736Z,4.44
2023-03-15T03:29:16.679Z,4.37
2023-03-15T03:31:44.355Z,4.53
2023-03-15T03:34:14.548Z,4.48
2023-03-15T03:36:42.819Z,4.64
2023-03-15T03:39:10.169Z,4.60
2023-03-15T03:41:36.962Z,4.53
2023-03-15T03:44:04.356Z,4.41
2023-03-15T03:46:31.157Z,4.40
2023-03-15T03:48:57.884Z,4.43
2023-03-15T03:51:24.530Z,4.58
2023-03-15T03:53:51.165Z,4.44
2023-03-15T03:56:17.908Z,4.37
2023-03-15T03:58:44.543Z,4.33
2023-03-15T04:01:11.703Z,4.29
2023-03-15T04:03:38.332Z,4.42
2023-03-15T04:06:05.788Z,4.36
2023-03-15T04:08:32.518Z,4.31
2023-03-15T04:10:59.508Z,4.25
2023-03-15T04:13:26.178Z,4.24
2023-03-15T04:15:57.658Z,4.15
2023-03-15T04:18:25.009Z,4.11
2023-03-15T04:20:54.764Z,4.21
2023-03-15T04:23:23.469Z,4.18
2023-03-15T04:25:52.194Z,4.26
2023-03-15T04:28:23.019Z,4.27
2023-03-15T04:30:50.622Z,4.32
2023-03-15T04:33:17.447Z,4.30
2023-03-15T04:35:44.177Z,4.24
2023-03-15T04:38:10.976Z,4.27
2023-03-15T04:40:37.752Z,4.23
2023-03-15T04:43:05.753Z,4.24
2023-03-15T04:45:32.625Z,4.26
2023-03-15T04:48:00.292Z,4.18
2023-03-15T04:50:27.767Z,4.16
2023-03-15T04:52:54.832Z,4.22
2023-03-15T04:55:21.520Z,4.18
2023-03-15T04:57:48.265Z,4.14
2023-03-15T05:00:15.285Z,4.16
2023-03-15T05:02:42.298Z,4.21
2023-03-15T05:05:10.375Z,4.22
2023-03-15T05:07:38.159Z,4.18
2023-03-15T05:10:06.438Z,4.15
2023-03-15T05:12:34.056Z,4.16
2023-03-15T05:15:00.895Z,4.20
2023-03-15T05:17:28.047Z,4.09
2023-03-15T05:19:54.874Z,4.08
2023-03-15T05:22:25.970Z,4.16
2023-03-15T05:24:53.821Z,4.08
2023-03-15T05:27:20.899Z,4.13
2023-03-15T05:29:47.652Z,4.11
2023-03-15T05:32:14.386Z,4.06
2023-03-15T05:34:42.768Z,4.01
2023-03-15T05:37:10.337Z,4.11
2023-03-15T05:39:42.523Z,4.05
2023-03-15T05:42:09.167Z,3.96
2023-03-15T05:44:35.752Z,3.94
2023-03-15T05:47:02.545Z,3.74
2023-03-15T05:49:29.171Z,3.66
2023-03-15T05:51:55.815Z,3.61
2023-03-15T05:54:22.695Z,3.65
2023-03-15T05:56:49.306Z,3.56
2023-03-15T05:59:15.967Z,3.40
2023-03-15T06:01:42.570Z,3.31
2023-03-15T06:04:09.364Z,3.28
2023-03-15T06:06:36.047Z,3.06
2023-03-15T06:09:02.667Z,3.05
2023-03-15T06:11:29.327Z,2.98
2023-03-15T06:13:55.942Z,2.97
2023-03-15T06:16:22.597Z,2.77
2023-03-15T06:18:49.305Z,2.53
2023-03-15T06:21:15.918Z,2.20
2023-03-15T06:23:42.579Z,2.22
2023-03-15T06:26:09.336Z,2.13
2023-03-15T06:28:36.007Z,2.05
2023-03-15T06:31:11.938Z,1.99
2023-03-15T06:33:39.247Z,1.85
2023-03-15T06:36:06.441Z,1.70
2023-03-15T06:38:33.239Z,1.69
2023-03-15T06:41:01.284Z,1.62
2023-03-15T06:43:28.627Z,1.56
2023-03-15T06:45:56.802Z,1.65
2023-03-15T06:48:23.467Z,1.60
2023-03-15T06:50:50.162Z,1.52
2023-03-15T06:53:17.776Z,1.55
2023-03-15T06:55:45.465Z,1.62
2023-03-15T06:58:13.040Z,1.58
2023-03-15T07:00:40.162Z,1.47
2023-03-15T07:03:06.764Z,1.39
2023-03-15T07:05:33.419Z,1.39
2023-03-15T07:08:00.065Z,1.24
2023-03-15T07:10:27.050Z,1.13
2023-03-15T07:12:53.698Z,1.11
2023-03-15T07:15:20.405Z,1.01
2023-03-15T07:17:47.086Z,0.94
2023-03-15T07:20:13.940Z,1.06
2023-03-15T07:22:40.724Z,1.03
2023-03-15T07:25:07.686Z,1.02
2023-03-15T07:27:34.416Z,0.89
2023-03-15T07:30:01.413Z,0.85
2023-03-15T07:32:28.303Z,0.79
2023-03-15T07:34:58.313Z,0.93
2023-03-15T07:37:25.004Z,0.83
2023-03-15T07:39:51.665Z,0.89
2023-03-15T07:42:18.394Z,0.86
2023-03-15T07:44:45.038Z,0.83
2023-03-15T07:47:11.732Z,0.96
2023-03-15T07:49:38.367Z,0.99
2023-03-15T07:52:05.113Z,0.97
2023-03-15T07:54:32.084Z,0.93
2023-03-15T07:56:58.822Z,0.98
2023-03-15T07:59:25.802Z,1.08
2023-03-15T08:01:52.476Z,1.00
2023-03-15T08:04:19.155Z,1.04
2023-03-15T08:06:45.782Z,1.15
2023-03-15T08:09:12.419Z,1.12
2023-03-15T08:11:39.107Z,1.12
2023-03-15T08:14:05.894Z,1.17
2023-03-15T08:16:32.610Z,1.14
2023-03-15T08:18:59.276Z,1.15
2023-03-15T08:21:26.032Z,1.23
2023-03-15T08:23:52.781Z,1.31
2023-03-15T08:26:19.425Z,1.28
2023-03-15T08:28:49.237Z,1.37
2023-03-15T08:31:15.965Z,1.50
2023-03-15T08:33:42.697Z,1.52
2023-03-15T08:36:09.635Z,1.58
2023-03-15T08:38:36.576Z,1.59
2023-03-15T08:41:03.594Z,1.61
2023-03-15T08:43:30.495Z,1.65
2023-03-15T08:46:01.260Z,1.74
2023-03-15T08:48:28.648Z,1.74
2023-03-15T08:53:35.518Z,1.98
2023-03-15T08:56:02.163Z,2.00
2023-03-15T08:58:28.773Z,2.30
2023-03-15T09:00:55.589Z,2.37
2023-03-15T09:03:22.628Z,2.36
2023-03-15T09:05:49.745Z,2.41
2023-03-15T09:08:21.069Z,2.49
2023-03-15T09:10:47.703Z,2.56
2023-03-15T09:13:14.339Z,2.77
2023-03-15T09:15:40.956Z,2.78
2023-03-15T09:18:08.271Z,2.82
2023-03-15T09:20:34.937Z,3.05
2023-03-15T09:23:01.612Z,3.24
2023-03-15T09:25:28.281Z,3.29
2023-03-15T09:27:55.134Z,3.23
2023-03-15T09:30:22.044Z,3.22
2023-03-15T09:32:49.202Z,3.24
2023-03-15T09:35:18.889Z,3.17
2023-03-15T09:37:46.361Z,3.23
2023-03-15T09:40:22.163Z,3.51
2023-03-15T09:43:04.125Z,3.64
2023-03-15T09:45:46.407Z,3.89
2023-03-15T09:48:25.131Z,4.03
2023-03-15T09:50:57.183Z,4.18
2023-03-15T09:53:27.808Z,4.34
2023-03-15T09:55:55.454Z,4.49
2023-03-15T09:58:26.895Z,4.62
2023-03-15T10:00:58.176Z,4.70
2023-03-15T10:03:49.198Z,4.63
2023-03-15T10:06:30.280Z,4.71
2023-03-15T10:08:59.482Z,4.76
2023-03-15T10:11:56.494Z,4.80
2023-03-15T10:14:58.278Z,4.81
2023-03-15T10:17:34.019Z,4.93
2023-03-15T10:20:10.298Z,5.05
2023-03-15T10:22:45.280Z,5.20
2023-03-15T10:25:17.947Z,5.24
2023-03-15T10:28:09.571Z,5.28
2023-03-15T10:30:38.503Z,5.22
2023-03-15T10:33:18.257Z,5.05
2023-03-15T10:35:44.954Z,5.00
2023-03-15T10:38:17.374Z,4.85
2023-03-15T10:40:45.986Z,4.78
2023-03-15T10:43:22.948Z,4.75
2023-03-15T10:46:06.677Z,4.98
2023-03-15T10:48:35.860Z,5.19
2023-03-15T10:51:19.608Z,5.19
2023-03-15T10:54:06.733Z,5.37
2023-03-15T10:56:47.268Z,5.54
2023-03-15T10:59:25.073Z,5.73
2023-03-15T11:01:54.119Z,5.74
2023-03-15T11:04:23.863Z,5.87
2023-03-15T11:07:03.469Z,5.78
2023-03-15T11:09:51.226Z,5.82
2023-03-15T11:12:27.705Z,5.94
2023-03-15T11:15:19.792Z,5.92
2023-03-15T11:17:49.875Z,5.75
2023-03-15T11:20:30.571Z,5.68
2023-03-15T11:22:58.524Z,5.79
2023-03-15T11:25:31.795Z,5.77
2023-03-15T11:27:59.883Z,5.88
2023-03-15T11:30:30.059Z,5.90
2023-03-15T11:33:01.687Z,5.90
2023-03-15T11:35:36.537Z,5.88
2023-03-15T11:38:15.187Z,5.85
2023-03-15T11:40:48.179Z,5.99
2023-03-15T11:43:18.695Z,6.06
2023-03-15T11:45:55.695Z,5.95
2023-03-15T11:48:26.836Z,6.01
2023-03-15T11:50:55.427Z,6.06
2023-03-15T11:53:25.594Z,5.95
2023-03-15T11:55:55.902Z,5.96
2023-03-15T11:58:34.291Z,5.98
2023-03-15T12:01:03.524Z,6.12
2023-03-15T12:03:37.081Z,6.00
2023-03-15T12:06:06.868Z,5.91
2023-03-15T12:08:35.530Z,5.90
2023-03-15T12:11:10.000Z,5.97
2023-03-15T12:13:36.665Z,6.01
2023-03-15T12:16:06.751Z,6.11
2023-03-15T12:18:43.712Z,5.99
2023-03-15T12:21:15.505Z,6.06
2023-03-15T12:23:47.024Z,6.01
2023-03-15T12:26:40.438Z,6.08
2023-03-15T12:29:20.036Z,6.16
2023-03-15T12:31:52.449Z,6.19
2023-03-15T12:34:28.927Z,6.18
2023-03-15T12:37:02.309Z,6.27
2023-03-15T12:39:46.329Z,6.16
2023-03-15T12:42:34.107Z,6.22
2023-03-15T12:45:16.010Z,6.18
2023-03-15T12:47:47.911Z,6.23
2023-03-15T12:50:45.637Z,6.34
2023-03-15T12:53:27.652Z,6.31
2023-03-15T12:56:02.821Z,6.37
2023-03-15T12:58:38.562Z,6.26
2023-03-15T13:01:08.089Z,6.32
2023-03-15T13:03:36.229Z,6.24
2023-03-15T13:06:35.965Z,6.39
2023-03-15T13:09:19.881Z,6.44
2023-03-15T13:11:54.458Z,6.50
2023-03-15T13:14:43.014Z,6.53
2023-03-15T13:17:24.558Z,6.49
2023-03-15T13:20:05.990Z,6.50
2023-03-15T13:22:55.461Z,6.62
2023-03-15T13:25:34.591Z,6.77
2023-03-15T13:28:22.488Z,6.83
2023-03-15T13:30:52.643Z,6.80
2023-03-15T13:33:31.432Z,6.74
2023-03-15T13:36:01.857Z,6.63
2023-03-15T13:38:35.001Z,6.66
2023-03-15T13:41:15.527Z,6.62
2023-03-15T13:43:42.448Z,6.62
2023-03-15T13:46:09.396Z,6.65
2023-03-15T13:48:40.737Z,6.86
2023-03-15T13:51:19.198Z,6.81
2023-03-15T13:53:50.341Z,6.82
2023-03-15T13:56:21.021Z,6.68
2023-03-15T13:58:49.401Z,6.68
2023-03-15T14:01:17.394Z,6.54
2023-03-15T14:03:53.819Z,6.47
2023-03-15T14:06:24.942Z,6.41
2023-03-15T14:08:59.359Z,6.42
2023-03-15T14:11:25.967Z,6.21
2023-03-15T14:13:58.452Z,6.32
2023-03-15T14:17:01.257Z,6.41
2023-03-15T14:19:32.854Z,6.39
2023-03-15T14:22:02.271Z,6.43
2023-03-15T14:24:37.369Z,6.44
2023-03-15T14:27:22.038Z,6.36
2023-03-15T14:29:52.110Z,6.31
2023-03-15T14:32:33.865Z,6.29
2023-03-15T14:35:08.094Z,6.32
2023-03-15T14:37:41.390Z,6.55
2023-03-15T14:40:21.117Z,6.59
2023-03-15T14:42:50.632Z,6.70
2023-03-15T14:45:18.670Z,6.78
2023-03-15T14:47:56.665Z,6.73
2023-03-15T14:50:27.948Z,6.74
2023-03-15T14:52:56.764Z,6.77
2023-03-15T14:55:28.410Z,6.85
2023-03-15T14:57:55.475Z,6.94
2023-03-15T15:00:22.614Z,6.90
2023-03-15T15:02:53.712Z,6.82
2023-03-15T15:05:24.780Z,6.84
2023-03-15T15:07:55.714Z,6.92
2023-03-15T15:10:24.172Z,6.97
2023-03-15T15:13:05.230Z,6.92
2023-03-15T15:15:43.781Z,6.99
2023-03-15T15:18:18.165Z,6.97
2023-03-15T15:20:45.306Z,7.01
2023-03-15T15:23:23.058Z,6.99
2023-03-15T15:25:51.683Z,7.03
2023-03-15T15:28:33.304Z,6.95
2023-03-15T15:31:01.159Z,6.89
2023-03-15T15:33:27.829Z,6.94
2023-03-15T15:35:56.407Z,6.91
2023-03-15T15:38:34.808Z,6.96
2023-03-15T15:41:01.777Z,6.88
2023-03-15T15:43:28.843Z,6.81
2023-03-15T15:45:55.457Z,6.70
2023-03-15T15:48:22.306Z,6.65
2023-03-15T15:50:49.229Z,6.61
2023-03-15T15:53:18.184Z,6.36
2023-03-15T15:55:45.920Z,6.25
2023-03-15T15:58:14.098Z,6.28
2023-03-15T16:00:40.782Z,6.09
2023-03-15T16:03:15.345Z,5.96
2023-03-15T16:05:42.573Z,5.87
2023-03-15T16:08:21.191Z,5.95
2023-03-15T16:10:48.129Z,5.93
2023-03-15T16:13:15.287Z,5.98
2023-03-15T16:15:41.958Z,5.85
2023-03-15T16:18:10.818Z,5.87
2023-03-15T16:20:39.151Z,5.95
2023-03-15T16:23:06.275Z,5.98
2023-03-15T16:25:36.299Z,5.88
2023-03-15T16:28:05.253Z,5.96
2023-03-15T16:30:35.707Z,5.82
2023-03-15T16:33:02.375Z,5.80
2023-03-15T16:35:33.915Z,5.73
2023-03-15T16:38:01.764Z,5.57
2023-03-15T16:40:31.919Z,5.55
2023-03-15T16:42:59.585Z,5.54
2023-03-15T16:45:27.057Z,5.43
2023-03-15T16:47:53.938Z,5.40
2023-03-15T16:50:20.745Z,5.45
2023-03-15T16:52:51.819Z,5.31
2023-03-15T16:55:23.626Z,5.21
2023-03-15T16:57:50.330Z,5.26
2023-03-15T17:00:18.369Z,5.15
2023-03-15T17:02:47.424Z,5.06
2023-03-15T17:05:18.903Z,5.07
2023-03-15T17:07:51.171Z,4.90
2023-03-15T17:10:23.157Z,4.87
2023-03-15T17:12:52.380Z,4.78
2023-03-15T17:15:23.945Z,4.71
2023-03-15T17:17:52.713Z,4.68
2023-03-15T17:20:21.949Z,4.63
2023-03-15T17:22:51.156Z,4.48
2023-03-15T17:25:18.946Z,4.40
2023-03-15T17:27:46.866Z,4.34
2023-03-15T17:30:18.169Z,4.28
2023-03-15T17:32:45.446Z,4.25
2023-03-15T17:35:13.976Z,4.31
2023-03-15T17:37:44.726Z,4.27
2023-03-15T17:40:21.258Z,4.24
2023-03-15T17:42:51.668Z,4.17
2023-03-15T17:45:24.645Z,4.16
2023-03-15T17:47:52.015Z,4.12
2023-03-15T17:50:19.148Z,4.06
2023-03-15T17:52:48.275Z,4.09
2023-03-15T17:55:18.566Z,3.96
2023-03-15T17:57:54.002Z,3.86
2023-03-15T18:00:22.165Z,3.84
2023-03-15T18:02:55.692Z,3.87
2023-03-15T18:05:25.804Z,3.77
2023-03-15T18:08:00.544Z,3.64
2023-03-15T18:10:43.955Z,3.61
2023-03-15T18:13:14.295Z,3.72
2023-03-15T18:15:41.484Z,3.67
2023-03-15T18:18:08.230Z,3.65
2023-03-15T18:20:35.292Z,3.62
2023-03-15T18:23:02.512Z,3.57
2023-03-15T18:25:32.060Z,3.48
2023-03-15T18:27:59.438Z,3.50
2023-03-15T18:30:28.340Z,3.53
2023-03-15T18:32:56.560Z,3.44
2023-03-15T18:35:27.879Z,3.39
2023-03-15T18:37:56.143Z,3.33
2023-03-15T18:40:24.664Z,3.37
2023-03-15T18:42:51.450Z,3.30
2023-03-15T18:45:29.805Z,3.36
2023-03-15T18:47:57.118Z,3.29
2023-03-15T18:50:23.894Z,3.27
2023-03-15T18:52:51.446Z,3.28
2023-03-15T18:55:22.086Z,3.28
2023-03-15T18:57:50.572Z,3.28
2023-03-15T19:00:25.963Z,3.28
2023-03-15T19:02:55.695Z,3.23
2023-03-15T19:05:22.403Z,3.19
2023-03-15T19:07:49.148Z,3.22
2023-03-15T19:10:19.120Z,3.21
2023-03-15T19:12:46.464Z,3.24
2023-03-15T19:15:17.348Z,3.22
2023-03-15T19:17:46.254Z,3.22
2023-03-15T19:20:15.234Z,3.19
2023-03-15T19:22:42.517Z,3.24
2023-03-15T19:25:13.832Z,3.23
2023-03-15T19:27:42.020Z,3.18
2023-03-15T19:30:12.049Z,3.02
2023-03-15T19:32:40.428Z,2.98
2023-03-15T19:35:07.610Z,2.90
2023-03-15T19:37:34.348Z,2.92
2023-03-15T19:40:01.167Z,2.90
2023-03-15T19:42:27.986Z,2.89
2023-03-15T19:44:54.610Z,3.00
2023-03-15T19:47:21.257Z,2.91
2023-03-15T19:49:47.858Z,3.04
2023-03-15T19:52:16.036Z,2.93
2023-03-15T19:54:42.682Z,2.99
2023-03-15T19:57:09.419Z,2.91
2023-03-15T19:59:39.890Z,2.90
2023-03-15T20:02:10.454Z,2.90
2023-03-15T20:04:37.205Z,2.84
2023-03-15T20:07:04.201Z,2.89
2023-03-15T20:09:31.065Z,2.84
2023-03-15T20:11:57.747Z,2.88
2023-03-15T20:14:24.418Z,2.81
2023-03-15T20:16:51.198Z,2.84
2023-03-15T20:19:17.848Z,2.87
2023-03-15T20:21:44.886Z,2.89
2023-03-15T20:24:11.711Z,2.87
2023-03-15T20:26:38.371Z,2.86
2023-03-15T20:29:05.035Z,2.86
2023-03-15T20:31:34.921Z,2.85
2023-03-15T20:34:01.764Z,2.91
2023-03-15T20:36:29.142Z,2.84
2023-03-15T20:38:55.780Z,2.81
2023-03-15T20:41:22.439Z,2.77
2023-03-15T20:43:49.080Z,2.75
2023-03-15T20:46:18.771Z,2.74
2023-03-15T20:48:45.969Z,2.61
2023-03-15T20:51:12.636Z,2.67
2023-03-15T20:53:39.300Z,2.65
2023-03-15T20:56:06.695Z,2.60
2023-03-15T20:58:33.426Z,2.67
2023-03-15T21:01:03.366Z,2.64
2023-03-15T21:03:33.171Z,2.64
2023-03-15T21:06:01.262Z,2.62
2023-03-15T21:08:28.478Z,2.62
2023-03-15T21:10:55.585Z,2.57
2023-03-15T21:13:22.690Z,2.48
2023-03-15T21:15:51.874Z,2.48
2023-03-15T21:18:19.147Z,2.45
2023-03-15T21:20:46.254Z,2.47
2023-03-15T21:23:13.020Z,2.40
2023-03-15T21:25:39.708Z,2.34
2023-03-15T21:28:07.062Z,2.25
2023-03-15T21:30:33.737Z,2.20
2023-03-15T21:33:00.746Z,2.24
2023-03-15T21:35:27.538Z,2.03
2023-03-15T21:37:54.239Z,2.07
2023-03-15T21:40:20.896Z,2.05
2023-03-15T21:42:47.871Z,2.20
2023-03-15T21:45:14.872Z,2.22
2023-03-15T21:47:41.676Z,2.13
2023-03-15T21:50:09.188Z,2.04
2023-03-15T21:52:35.852Z,1.96
2023-03-15T21:55:02.595Z,1.86
2023-03-15T21:57:29.260Z,1.86
2023-03-15T21:59:55.918Z,1.76
2023-03-15T22:02:22.648Z,1.77
2023-03-15T22:04:49.290Z,1.76
2023-03-15T22:07:15.977Z,1.76
2023-03-15T22:09:43.340Z,1.86
2023-03-15T22:12:10.505Z,1.98
2023-03-15T22:14:37.418Z,1.82
2023-03-15T22:17:04.849Z,1.66
2023-03-15T22:19:32.216Z,1.76
2023-03-15T22:21:59.019Z,1.79
2023-03-15T22:24:25.676Z,1.60
2023-03-15T22:26:53.145Z,1.45
2023-03-15T22:29:20.218Z,1.30
2023-03-15T22:31:47.046Z,1.24
2023-03-15T22:34:13.672Z,1.23
2023-03-15T22:36:42.694Z,1.21
2023-03-15T22:39:10.336Z,1.16
2023-03-15T22:41:37.962Z,1.19
2023-03-15T22:44:04.830Z,1.13
2023-03-15T22:46:34.856Z,1.03
2023-03-15T22:49:02.163Z,1.05
2023-03-15T22:51:28.824Z,0.98
2023-03-15T22:53:55.478Z,1.03
2023-03-15T22:56:22.187Z,1.03
2023-03-15T22:58:49.303Z,1.01
2023-03-15T23:01:16.019Z,1.01
2023-03-15T23:03:43.274Z,1.00
2023-03-15T23:06:09.908Z,0.99
2023-03-15T23:08:36.526Z,1.02
2023-03-15T23:11:04.021Z,1.02
2023-03-15T23:13:31.160Z,0.97
2023-03-15T23:15:58.082Z,0.92
2023-03-15T23:18:25.062Z,0.86
2023-03-15T23:20:51.920Z,0.85
2023-03-15T23:23:18.598Z,0.83
2023-03-15T23:25:45.953Z,0.79
2023-03-15T23:28:13.887Z,0.75
2023-03-15T23:30:40.613Z,0.60
2023-03-15T23:33:08.520Z,0.58
2023-03-15T23:35:35.619Z,0.55
2023-03-15T23:38:02.475Z,0.48
2023-03-15T23:40:30.179Z,0.51
2023-03-15T23:42:59.371Z,0.53
2023-03-15T23:45:29.869Z,0.56
2023-03-15T23:47:57.247Z,0.55
2023-03-15T23:50:26.100Z,0.35
2023-03-15T23:52:54.716Z,0.36
2023-03-15T23:55:22.530Z,0.37
2023-03-15T23:57:49.647Z,0.36
